Nearby METAR Reports

 

KBML - Berlin, NH
Updated: Tue, 12-Dec-2017 12:52am EST
Overcast
Overcast
 Wind from calm
Wind: Calm
Temperature: 10°F , -12°C
Dew Point: 9°F , -13°C
Humidity: 92%
Barometer: 29.94 inHg , 1013.9 hPa
Clouds: Overcast
Visibility: 10 miles , 16 km
Cloud details: Overcast 10000 ft
2017/12/12 05:52 KBML 120552Z AUTO 00000KT 10SM OVC100 M12/M13 A2994 RMK AO2 SLP161 I6000 T11171133 11111 21144 58004
KCON - Concord, NH
Updated: Tue, 12-Dec-2017 12:51am EST
Overcast
Overcast
 Wind from calm
Wind: Calm
Temperature: 27°F , -3°C
Dew Point: 21°F , -6°C
Humidity: 80%
Barometer: 29.97 inHg , 1014.9 hPa
Clouds: Overcast
Visibility: 10 miles , 16 km
Cloud details: Overcast 5000 ft
2017/12/12 05:51 KCON 120551Z AUTO 00000KT 10SM OVC050 M03/M06 A2997 RMK AO2 SLP155 T10331061 11011 21044 57010
KAFN - Lebanon, NH
Updated: Tue, 12-Dec-2017 12:52am EST
Overcast
Overcast
 Wind from calm
Wind: Calm
Temperature: 28°F , -2°C
Dew Point: 19°F , -7°C
Humidity: 69%
Barometer: 29.91 inHg , 1012.9 hPa
Clouds: Overcast
Visibility: 10 miles , 16 km
Cloud details: Mostly cloudy 4400 ft
Overcast 7000 ft
2017/12/12 05:52 KAFN 120552Z AUTO 00000KT 10SM BKN044 OVC070 M02/M07 A2991 RMK AO2 SLP146 T10221067 11022 21044 58016
 
KMHT - Manchester, NH
Updated: Tue, 12-Dec-2017 12:53am EST
Overcast
Overcast
 Wind from N
Wind: N 3 mph , 6 km/h
Temperature: 28°F , -2°C
Dew Point: 21°F , -6°C
Humidity: 74%
Barometer: 29.96 inHg , 1014.6 hPa
Clouds: Overcast
Visibility: 10 miles , 16 km
Cloud details: Overcast 5000 ft
2017/12/12 05:53 KMHT 120553Z 01003KT 10SM OVC050 M02/M06 A2996 RMK AO2 SLP164 4/003 T10171056 10000 21017 56013
KMWN - Mount Washington
Updated: Tue, 12-Dec-2017 12:52am EST
Freezing fog, Overcast
Freezing fog, Overcast
 Wind from WSW
Wind: WSW 38 mph , 61 km/h
Temperature: 3°F , -16°C
Wind Chill: -24°F , -31°C
Dew Point: 3°F , -16°C
Humidity: 100%
Summary: Freezing Fog
Clouds: Overcast
Visibility: 1/16 mile , 0.1 km
Cloud details: Overcast 100 ft
2017/12/12 05:52 KMWN 120552Z 25033KT 1/16SM FZFG VV001 M16/M16 RMK VRY LGT ICG 4/009 11145 21189
K25B - Portsmouth Harbor
Updated: Wed, 31-Dec-1969 7:00pm EST
NOT Current
unable to load K25B data RC=404 Not Found
unable to load K25B data RC=404 Not Found
 
 
KDDH - Bennington, VT
Updated: Mon, 11-Dec-2017 11:54pm EST
NOT Current
Overcast
Overcast
 Wind from SE
Wind: SE 8 mph , 13 km/h
Temperature: 30°F , -1°C
Wind Chill: 22°F , -6°C
Dew Point: 18°F , -8°C
Humidity: 59%
Barometer: 29.89 inHg , 1012.2 hPa
Clouds: Overcast
Visibility: 10 miles , 16 km
Cloud details: Mostly cloudy 4600 ft
Overcast 7000 ft
2017/12/12 04:54 KDDH 120454Z AUTO 13007KT 10SM BKN046 OVC070 M01/M08 A2989 RMK AO2 SLP132 T10111083 400001033
K9B2 - Newport, VT
Updated: Wed, 31-Dec-1969 7:00pm EST
NOT Current
unable to load K9B2 data RC=404 Not Found
unable to load K9B2 data RC=404 Not Found
 
K1V4 - St Johnsbury, VT
Updated: Tue, 12-Dec-2017 12:54am EST

 
Temperature: 16°F , -9°C
Dew Point: 10°F , -12°C
Humidity: 79%
Barometer: 29.93 inHg , 1013.5 hPa
2017/12/12 05:54 K1V4 120554Z AUTO M09/M12 A2993 RMK AO1 SLP152 T10941117 11089 21100 58013
 
KBGR - Bangor, ME
Updated: Tue, 12-Dec-2017 12:53am EST
Partly cloudy
Partly cloudy
 Wind from N
Wind: N 6 mph , 9 km/h
Temperature: 14°F , -10°C
Wind Chill: 5°F , -15°C
Dew Point: 9°F , -13°C
Humidity: 79%
Barometer: 30.07 inHg , 1018.3 hPa
Clouds: Partly cloudy
Visibility: 10 miles , 16 km
Cloud details: Partly cloudy 25000 ft
2017/12/12 05:53 KBGR 120553Z 01005KT 10SM SCT250 M10/M13 A3007 RMK AO2 SLP186 4/006 T11001133 11056 21106 51002
KBHB - Bar Harbor, ME
Updated: Tue, 12-Dec-2017 12:56am EST
Partly cloudy
Partly cloudy
 Wind from N
Wind: N 7 mph , 11 km/h
Temperature: 18°F , -8°C
Wind Chill: 9°F , -13°C
Dew Point: 16°F , -9°C
Humidity: 93%
Barometer: 30.07 inHg , 1018.3 hPa
Clouds: Partly cloudy
Visibility: 10 miles , 16 km
Cloud details: Few Clouds 1300 ft
Partly cloudy 11000 ft
2017/12/12 05:56 KBHB 120556Z AUTO 01006KT 10SM FEW013 SCT110 M08/M09 A3007 RMK AO2 SLP186 6//// T10781094 11022 21083 50004 FZRANO PNO $
74389 - Gray, ME
Updated: Wed, 31-Dec-1969 7:00pm EST
NOT Current
74389 not loaded
74389 not loaded
 
 
KGNR - Greenville,ME
Updated: Tue, 12-Dec-2017 12:56am EST

 Wind from NE
Wind: NE 3 mph , 6 km/h
Temperature: 5°F , -15°C
Dew Point: -0°F , -18°C
Humidity: 78%
Barometer: 29.95 inHg , 1014.2 hPa
2017/12/12 05:56 KGNR 120556Z AUTO 04003KT M15/M18 A2995 RMK AO1 SLP171 T11501183 11122 21156 52010
KOLD - Old Town, ME
Updated: Wed, 31-Dec-1969 7:00pm EST
NOT Current
unable to load KOLD data RC=404 Not Found
unable to load KOLD data RC=404 Not Found
 
KRUM - Rumford, ME
Updated: Wed, 31-Dec-1969 7:00pm EST
NOT Current
unable to load KRUM data RC=404 Not Found
unable to load KRUM data RC=404 Not Found
 



USA Weather Finder


World Weather Websites





Hit Counter
Contact Us

© 2017, johnsnhweather | Weather-Display (10.37S-(b61)) | Valid XHTML 1.0 | Valid CSS

This website is neither affiliated with nor endorsed by the National Weather Service, the town of Pittsburg or any other government agency.
The weather data contained herein is offered without any warranties expressed or implied, and is meant to supplement NOAA weather forecasts and information. Never base important decisions that could result in harm to people or property on this weather information.